createdAt,value
2023-01-15T00:01:21.279Z,15.88
2023-01-15T00:03:50.131Z,15.77
2023-01-15T00:06:19.010Z,15.80
2023-01-15T00:08:47.253Z,15.80
2023-01-15T00:11:16.380Z,15.87
2023-01-15T00:13:44.666Z,15.73
2023-01-15T00:16:16.089Z,15.70
2023-01-15T00:18:44.972Z,15.72
2023-01-15T00:21:14.113Z,15.79
2023-01-15T00:23:59.979Z,15.75
2023-01-15T00:26:48.211Z,15.74
2023-01-15T00:29:17.219Z,15.68
2023-01-15T00:31:56.538Z,15.74
2023-01-15T00:34:25.373Z,15.71
2023-01-15T00:36:54.079Z,15.62
2023-01-15T00:39:24.190Z,15.52
2023-01-15T00:41:55.846Z,15.66
2023-01-15T00:44:24.376Z,15.60
2023-01-15T00:46:53.962Z,15.61
2023-01-15T00:49:22.254Z,15.50
2023-01-15T00:51:51.161Z,15.68
2023-01-15T00:54:19.406Z,15.61
2023-01-15T00:56:47.757Z,15.55
2023-01-15T00:59:16.040Z,15.57
2023-01-15T01:01:44.469Z,15.59
2023-01-15T01:04:14.051Z,15.57
2023-01-15T01:06:42.728Z,15.58
2023-01-15T01:09:13.772Z,15.60
2023-01-15T01:11:41.987Z,15.59
2023-01-15T01:14:12.829Z,15.60
2023-01-15T01:16:44.598Z,15.60
2023-01-15T01:19:17.346Z,15.62
2023-01-15T01:21:47.812Z,15.53
2023-01-15T01:24:18.191Z,15.63
2023-01-15T01:26:47.578Z,15.65
2023-01-15T01:29:17.584Z,15.64
2023-01-15T01:31:46.428Z,15.64
2023-01-15T01:34:16.050Z,15.65
2023-01-15T01:36:45.566Z,15.66
2023-01-15T01:39:19.915Z,15.75
2023-01-15T01:41:49.587Z,15.78
2023-01-15T01:44:55.316Z,15.83
2023-01-15T01:47:27.187Z,15.83
2023-01-15T01:50:04.292Z,15.72
2023-01-15T01:52:38.302Z,15.66
2023-01-15T01:55:07.697Z,15.75
2023-01-15T01:57:36.401Z,15.67
2023-01-15T02:00:06.885Z,15.71
2023-01-15T02:02:43.380Z,15.78
2023-01-15T02:05:17.961Z,15.82
2023-01-15T02:07:47.007Z,15.81
2023-01-15T02:10:17.005Z,15.79
2023-01-15T02:12:50.740Z,15.77
2023-01-15T02:15:23.404Z,15.76
2023-01-15T02:17:57.118Z,15.73
2023-01-15T02:20:33.496Z,15.76
2023-01-15T02:23:43.921Z,15.84
2023-01-15T02:26:33.304Z,15.92
2023-01-15T02:29:05.141Z,15.78
2023-01-15T02:31:38.505Z,15.86
2023-01-15T02:34:11.630Z,15.85
2023-01-15T02:36:43.059Z,15.78
2023-01-15T02:39:16.117Z,15.88
2023-01-15T02:41:48.240Z,15.92
2023-01-15T02:44:20.899Z,15.93
2023-01-15T02:46:50.201Z,15.97
2023-01-15T02:49:21.493Z,15.97
2023-01-15T02:51:57.031Z,15.96
2023-01-15T02:54:29.618Z,15.93
2023-01-15T02:57:01.207Z,15.95
2023-01-15T02:59:37.335Z,16.02
2023-01-15T03:02:12.178Z,15.97
2023-01-15T03:04:44.831Z,15.99
2023-01-15T03:07:18.664Z,15.99
2023-01-15T03:09:47.910Z,16.02
2023-01-15T03:12:20.949Z,15.99
2023-01-15T03:14:58.764Z,16.05
2023-01-15T03:17:35.106Z,16.04
2023-01-15T03:20:10.327Z,16.04
2023-01-15T03:22:43.099Z,15.96
2023-01-15T03:25:17.951Z,15.96
2023-01-15T03:27:46.860Z,16.03
2023-01-15T03:30:18.668Z,15.96
2023-01-15T03:32:48.029Z,16.03
2023-01-15T03:35:43.440Z,16.02
2023-01-15T03:38:13.263Z,15.98
2023-01-15T03:40:51.570Z,15.92
2023-01-15T03:43:44.505Z,15.95
2023-01-15T03:46:34.942Z,15.95
2023-01-15T03:49:12.264Z,15.68
2023-01-15T03:51:49.933Z,15.80
2023-01-15T03:54:25.825Z,15.73
2023-01-15T03:56:59.395Z,15.77
2023-01-15T03:59:33.484Z,15.76
2023-01-15T04:02:05.016Z,15.67
2023-01-15T04:04:34.952Z,15.68
2023-01-15T04:07:03.923Z,15.62
2023-01-15T04:09:39.261Z,15.24
2023-01-15T04:12:08.245Z,14.35
2023-01-15T04:14:38.726Z,13.58
2023-01-15T04:17:08.605Z,13.14
2023-01-15T04:19:36.830Z,13.39
2023-01-15T04:22:05.304Z,13.27
2023-01-15T04:24:33.392Z,12.95
2023-01-15T04:27:01.611Z,12.87
2023-01-15T04:29:29.611Z,12.74
2023-01-15T04:31:58.256Z,12.48
2023-01-15T04:34:28.927Z,12.50
2023-01-15T04:36:57.447Z,12.38
2023-01-15T04:39:25.683Z,12.59
2023-01-15T04:42:11.472Z,12.60
2023-01-15T04:44:40.374Z,12.58
2023-01-15T04:47:08.569Z,12.60
2023-01-15T04:49:38.085Z,12.54
2023-01-15T04:52:06.307Z,12.55
2023-01-15T04:54:34.524Z,12.47
2023-01-15T04:57:02.506Z,12.45
2023-01-15T04:59:30.461Z,12.48
2023-01-15T05:02:04.613Z,12.30
2023-01-15T05:04:35.142Z,12.40
2023-01-15T05:07:06.128Z,12.39
2023-01-15T05:09:34.408Z,12.33
2023-01-15T05:12:02.594Z,12.27
2023-01-15T05:14:31.115Z,12.26
2023-01-15T05:16:59.495Z,12.13
2023-01-15T05:19:27.489Z,12.11
2023-01-15T05:21:55.670Z,12.23
2023-01-15T05:24:25.365Z,12.17
2023-01-15T05:26:53.763Z,12.17
2023-01-15T05:29:22.291Z,12.03
2023-01-15T05:31:50.339Z,11.89
2023-01-15T05:34:18.377Z,11.86
2023-01-15T05:36:46.731Z,11.83
2023-01-15T05:39:14.718Z,11.97
2023-01-15T05:41:54.021Z,12.03
2023-01-15T05:44:25.241Z,11.83
2023-01-15T05:46:55.566Z,11.86
2023-01-15T05:49:25.604Z,11.91
2023-01-15T05:51:54.872Z,11.89
2023-01-15T05:54:25.145Z,11.85
2023-01-15T05:56:55.026Z,11.83
2023-01-15T05:59:25.482Z,11.96
2023-01-15T06:01:54.687Z,11.86
2023-01-15T06:04:25.140Z,12.01
2023-01-15T06:06:54.514Z,12.12
2023-01-15T06:09:23.152Z,12.16
2023-01-15T06:11:51.599Z,12.23
2023-01-15T06:14:21.191Z,12.17
2023-01-15T06:16:49.359Z,12.11
2023-01-15T06:19:17.441Z,12.01
2023-01-15T06:21:45.486Z,12.18
2023-01-15T06:24:16.499Z,12.24
2023-01-15T06:26:44.573Z,12.34
2023-01-15T06:29:13.438Z,12.36
2023-01-15T06:31:43.464Z,12.34
2023-01-15T06:34:11.428Z,12.36
2023-01-15T06:36:39.406Z,12.45
2023-01-15T06:39:07.815Z,12.46
2023-01-15T06:41:53.509Z,12.50
2023-01-15T06:44:39.788Z,12.52
2023-01-15T06:47:24.949Z,12.55
2023-01-15T06:49:55.579Z,12.57
2023-01-15T06:52:24.412Z,12.59
2023-01-15T06:54:53.270Z,12.64
2023-01-15T06:57:21.719Z,12.66
2023-01-15T06:59:50.475Z,12.61
2023-01-15T07:02:19.984Z,12.71
2023-01-15T07:04:49.171Z,12.67
2023-01-15T07:07:17.712Z,12.58
2023-01-15T07:09:45.741Z,12.52
2023-01-15T07:12:14.108Z,12.51
2023-01-15T07:14:42.387Z,12.49
2023-01-15T07:17:10.463Z,12.48
2023-01-15T07:19:40.226Z,12.42
2023-01-15T07:22:10.077Z,12.26
2023-01-15T07:24:38.242Z,12.19
2023-01-15T07:27:06.944Z,12.22
2023-01-15T07:29:34.866Z,12.29
2023-01-15T07:32:03.268Z,12.27
2023-01-15T07:34:31.452Z,12.28
2023-01-15T07:37:00.664Z,12.23
2023-01-15T07:39:31.576Z,12.27
2023-01-15T07:42:17.236Z,12.33
2023-01-15T07:45:03.918Z,12.22
2023-01-15T07:47:49.837Z,12.29
2023-01-15T07:50:21.972Z,12.19
2023-01-15T07:52:53.375Z,12.15
2023-01-15T07:55:22.537Z,12.15
2023-01-15T07:57:50.554Z,12.11
2023-01-15T08:00:22.785Z,12.09
2023-01-15T08:02:51.193Z,12.04
2023-01-15T08:05:19.905Z,12.19
2023-01-15T08:07:49.113Z,12.14
2023-01-15T08:10:19.681Z,12.18
2023-01-15T08:13:08.224Z,12.17
2023-01-15T08:15:40.633Z,12.11
2023-01-15T08:18:08.586Z,12.11
2023-01-15T08:20:37.252Z,12.17
2023-01-15T08:23:05.154Z,12.11
2023-01-15T08:25:34.560Z,12.13
2023-01-15T08:28:03.535Z,12.26
2023-01-15T08:30:31.868Z,12.11
2023-01-15T08:33:03.616Z,12.09
2023-01-15T08:35:32.260Z,12.14
2023-01-15T08:38:00.284Z,12.11
2023-01-15T08:40:28.315Z,11.91
2023-01-15T08:42:57.833Z,12.04
2023-01-15T08:45:25.927Z,12.03
2023-01-15T08:47:55.891Z,12.01
2023-01-15T08:50:24.267Z,12.01
2023-01-15T08:52:52.379Z,11.94
2023-01-15T08:55:20.560Z,12.06
2023-01-15T08:57:49.595Z,12.03
2023-01-15T09:00:20.213Z,11.93
2023-01-15T09:02:50.149Z,12.05
2023-01-15T09:05:18.944Z,12.05
2023-01-15T09:07:47.138Z,12.03
2023-01-15T09:10:15.717Z,11.92
2023-01-15T09:12:43.769Z,12.14
2023-01-15T09:15:12.483Z,12.18
2023-01-15T09:17:42.144Z,12.05
2023-01-15T09:20:13.531Z,12.12
2023-01-15T09:22:41.965Z,12.13
2023-01-15T09:25:10.878Z,12.30
2023-01-15T09:27:39.431Z,12.31
2023-01-15T09:30:09.713Z,12.22
2023-01-15T09:32:38.099Z,12.37
2023-01-15T09:35:09.256Z,12.35
2023-01-15T09:37:37.877Z,12.44
2023-01-15T09:40:09.219Z,12.40
2023-01-15T09:42:46.666Z,12.29
2023-01-15T09:45:23.388Z,12.31
2023-01-15T09:48:13.072Z,12.34
2023-01-15T09:50:56.905Z,12.61
2023-01-15T09:53:37.805Z,12.58
2023-01-15T09:56:06.499Z,12.51
2023-01-15T09:58:37.529Z,12.46
2023-01-15T10:01:06.484Z,12.59
2023-01-15T10:03:43.545Z,12.53
2023-01-15T10:06:21.068Z,12.58
2023-01-15T10:08:50.852Z,12.73
2023-01-15T10:11:49.365Z,12.75
2023-01-15T10:14:32.748Z,12.44
2023-01-15T10:17:01.593Z,12.53
2023-01-15T10:19:43.947Z,12.86
2023-01-15T10:22:26.384Z,12.78
2023-01-15T10:24:58.222Z,12.86
2023-01-15T10:27:33.330Z,12.91
2023-01-15T10:30:07.857Z,13.06
2023-01-15T10:33:01.143Z,13.07
2023-01-15T10:35:43.726Z,12.96
2023-01-15T10:38:22.257Z,13.14
2023-01-15T10:41:16.851Z,12.86
2023-01-15T10:43:52.082Z,13.45
2023-01-15T10:46:25.433Z,13.48
2023-01-15T10:48:57.264Z,13.68
2023-01-15T10:51:30.743Z,13.92
2023-01-15T10:54:03.811Z,13.95
2023-01-15T10:56:36.540Z,14.01
2023-01-15T10:59:13.829Z,13.93
2023-01-15T11:01:42.565Z,13.81
2023-01-15T11:04:13.523Z,14.03
2023-01-15T11:06:42.751Z,13.91
2023-01-15T11:09:22.251Z,13.42
2023-01-15T11:12:12.741Z,13.90
2023-01-15T11:15:01.004Z,13.51
2023-01-15T11:17:50.664Z,13.81
2023-01-15T11:20:29.002Z,13.71
2023-01-15T11:22:58.291Z,13.58
2023-01-15T11:25:29.757Z,13.56
2023-01-15T11:28:01.261Z,13.44
2023-01-15T11:30:32.142Z,13.28
2023-01-15T11:33:04.199Z,13.11
2023-01-15T11:35:33.137Z,13.29
2023-01-15T11:38:06.346Z,13.34
2023-01-15T11:40:35.978Z,13.42
2023-01-15T11:43:21.880Z,13.42
2023-01-15T11:46:09.622Z,13.45
2023-01-15T11:49:04.135Z,13.17
2023-01-15T11:51:35.646Z,13.38
2023-01-15T11:54:08.526Z,13.25
2023-01-15T11:56:43.173Z,13.39
2023-01-15T11:59:14.629Z,13.19
2023-01-15T12:01:54.704Z,13.09
2023-01-15T12:04:35.858Z,13.11
2023-01-15T12:07:06.251Z,13.12
2023-01-15T12:09:54.807Z,13.29
2023-01-15T12:12:31.595Z,13.13
2023-01-15T12:15:24.308Z,13.18
2023-01-15T12:18:17.872Z,12.86
2023-01-15T12:21:02.635Z,13.12
2023-01-15T12:23:46.321Z,13.02
2023-01-15T12:26:24.791Z,12.99
2023-01-15T12:29:03.841Z,13.11
2023-01-15T12:31:37.842Z,13.16
2023-01-15T12:34:16.525Z,13.12
2023-01-15T12:36:49.451Z,13.14
2023-01-15T12:39:23.027Z,12.85
2023-01-15T12:42:13.420Z,13.02
2023-01-15T12:45:05.166Z,12.72
2023-01-15T12:47:40.994Z,12.83
2023-01-15T12:50:26.659Z,12.57
2023-01-15T12:53:00.867Z,12.88
2023-01-15T12:55:31.416Z,12.75
2023-01-15T12:58:02.978Z,12.65
2023-01-15T13:00:38.400Z,12.69
2023-01-15T13:03:18.978Z,12.69
2023-01-15T13:05:50.783Z,12.39
2023-01-15T13:08:25.005Z,12.51
2023-01-15T13:10:53.238Z,12.72
2023-01-15T13:13:24.697Z,12.60
2023-01-15T13:16:09.059Z,12.57
2023-01-15T13:18:48.020Z,12.35
2023-01-15T13:21:20.293Z,12.55
2023-01-15T13:24:16.225Z,12.30
2023-01-15T13:27:10.915Z,12.40
2023-01-15T13:29:59.967Z,12.26
2023-01-15T13:32:32.860Z,12.37
2023-01-15T13:35:09.021Z,12.41
2023-01-15T13:37:43.513Z,12.29
2023-01-15T13:40:19.336Z,12.52
2023-01-15T13:42:49.139Z,12.46
2023-01-15T13:45:37.429Z,12.48
2023-01-15T13:48:13.341Z,12.28
2023-01-15T13:50:44.193Z,12.46
2023-01-15T13:53:23.597Z,12.41
2023-01-15T13:55:54.874Z,12.28
2023-01-15T13:58:26.937Z,12.32
2023-01-15T14:01:08.944Z,12.17
2023-01-15T14:03:39.395Z,12.40
2023-01-15T14:06:09.677Z,12.39
2023-01-15T14:08:40.880Z,12.35
2023-01-15T14:11:37.851Z,12.46
2023-01-15T14:14:38.479Z,12.30
2023-01-15T14:17:25.505Z,12.40
2023-01-15T14:20:18.378Z,12.42
2023-01-15T14:23:02.464Z,12.46
2023-01-15T14:26:01.740Z,12.30
2023-01-15T14:28:44.658Z,12.26
2023-01-15T14:31:29.772Z,12.30
2023-01-15T14:34:19.956Z,12.35
2023-01-15T14:36:56.350Z,11.94
2023-01-15T14:39:32.017Z,11.93
2023-01-15T14:42:23.181Z,12.12
2023-01-15T14:44:59.689Z,12.27
2023-01-15T14:47:34.609Z,12.27
2023-01-15T14:50:20.406Z,12.24
2023-01-15T14:52:53.303Z,12.00
2023-01-15T14:55:22.527Z,11.94
2023-01-15T14:57:58.163Z,12.07
2023-01-15T15:00:32.683Z,11.94
2023-01-15T15:03:02.968Z,11.81
2023-01-15T15:05:35.077Z,11.98
2023-01-15T15:08:06.048Z,11.92
2023-01-15T15:10:39.680Z,12.00
2023-01-15T15:13:14.876Z,11.78
2023-01-15T15:15:51.787Z,11.59
2023-01-15T15:18:29.921Z,11.64
2023-01-15T15:21:06.420Z,11.53
2023-01-15T15:23:43.339Z,11.42
2023-01-15T15:26:25.503Z,11.55
2023-01-15T15:28:59.304Z,11.45
2023-01-15T15:31:29.459Z,11.47
2023-01-15T15:33:59.550Z,11.47
2023-01-15T15:36:30.943Z,11.35
2023-01-15T15:39:03.604Z,11.49
2023-01-15T15:41:53.827Z,11.22
2023-01-15T15:44:49.243Z,11.43
2023-01-15T15:47:39.119Z,11.46
2023-01-15T15:50:08.034Z,11.43
2023-01-15T15:52:36.561Z,11.42
2023-01-15T15:55:06.837Z,11.07
2023-01-15T15:57:36.463Z,11.15
2023-01-15T16:00:06.409Z,11.34
2023-01-15T16:02:41.407Z,11.18
2023-01-15T16:05:22.625Z,11.03
2023-01-15T16:07:51.614Z,11.21
2023-01-15T16:10:25.975Z,11.17
2023-01-15T16:12:57.348Z,11.13
2023-01-15T16:15:28.609Z,11.19
2023-01-15T16:17:58.328Z,11.00
2023-01-15T16:20:27.575Z,11.20
2023-01-15T16:22:57.984Z,11.01
2023-01-15T16:25:30.712Z,10.94
2023-01-15T16:27:59.625Z,10.92
2023-01-15T16:30:28.951Z,10.97
2023-01-15T16:33:02.281Z,11.08
2023-01-15T16:35:32.405Z,11.01
2023-01-15T16:38:02.510Z,10.96
2023-01-15T16:40:33.935Z,10.79
2023-01-15T16:43:07.647Z,10.87
2023-01-15T16:45:38.494Z,10.87
2023-01-15T16:48:29.827Z,10.98
2023-01-15T16:50:58.953Z,10.89
2023-01-15T16:53:33.343Z,10.72
2023-01-15T16:56:03.550Z,10.96
2023-01-15T16:58:38.171Z,10.92
2023-01-15T17:01:33.204Z,11.02
2023-01-15T17:04:02.139Z,10.91
2023-01-15T17:06:30.649Z,11.00
2023-01-15T17:08:59.149Z,10.96
2023-01-15T17:11:30.904Z,10.90
2023-01-15T17:14:11.151Z,10.83
2023-01-15T17:16:39.136Z,10.79
2023-01-15T17:19:08.781Z,10.82
2023-01-15T17:21:38.885Z,10.86
2023-01-15T17:24:08.051Z,11.07
2023-01-15T17:26:38.245Z,10.91
2023-01-15T17:29:06.211Z,11.00
2023-01-15T17:31:36.338Z,10.92
2023-01-15T17:34:04.958Z,10.92
2023-01-15T17:36:34.504Z,11.09
2023-01-15T17:39:02.637Z,10.99
2023-01-15T17:41:31.004Z,10.98
2023-01-15T17:44:00.364Z,10.65
2023-01-15T17:46:28.833Z,10.93
2023-01-15T17:48:57.127Z,10.97
2023-01-15T17:51:26.322Z,10.88
2023-01-15T17:53:54.422Z,10.87
2023-01-15T17:56:40.297Z,10.86
2023-01-15T17:59:29.159Z,11.05
2023-01-15T18:02:15.136Z,10.61
2023-01-15T18:05:04.698Z,10.82
2023-01-15T18:07:35.999Z,10.79
2023-01-15T18:10:06.247Z,10.77
2023-01-15T18:12:34.231Z,10.74
2023-01-15T18:15:03.638Z,10.88
2023-01-15T18:17:32.119Z,10.70
2023-01-15T18:20:00.126Z,10.94
2023-01-15T18:22:29.805Z,10.90
2023-01-15T18:24:58.116Z,10.82
2023-01-15T18:27:30.031Z,10.84
2023-01-15T18:29:59.267Z,10.74
2023-01-15T18:32:30.579Z,10.70
2023-01-15T18:34:59.103Z,10.73
2023-01-15T18:37:27.110Z,10.79
2023-01-15T18:39:55.281Z,10.62
2023-01-15T18:42:41.137Z,10.76
2023-01-15T18:45:28.003Z,10.77
2023-01-15T18:47:57.567Z,10.75
2023-01-15T18:50:26.519Z,10.49
2023-01-15T18:52:55.403Z,10.83
2023-01-15T18:55:25.551Z,10.75
2023-01-15T18:57:53.759Z,10.68
2023-01-15T19:00:23.568Z,10.85
2023-01-15T19:02:52.882Z,10.82
2023-01-15T19:05:22.609Z,10.57
2023-01-15T19:07:51.173Z,10.72
2023-01-15T19:10:19.856Z,10.66
2023-01-15T19:12:47.940Z,10.79
2023-01-15T19:15:34.986Z,10.86
2023-01-15T19:18:21.248Z,10.70
2023-01-15T19:20:50.795Z,10.80
2023-01-15T19:23:21.166Z,10.64
2023-01-15T19:25:49.769Z,10.71
2023-01-15T19:28:19.987Z,10.64
2023-01-15T19:31:10.842Z,10.72
2023-01-15T19:33:39.077Z,10.74
2023-01-15T19:36:09.448Z,10.73
2023-01-15T19:38:39.064Z,10.80
2023-01-15T19:41:29.638Z,10.58
2023-01-15T19:44:15.329Z,10.58
2023-01-15T19:47:01.771Z,10.70
2023-01-15T19:49:51.807Z,10.79
2023-01-15T19:52:37.774Z,10.67
2023-01-15T19:55:10.594Z,10.63
2023-01-15T19:57:39.124Z,10.69
2023-01-15T20:00:10.090Z,10.75
2023-01-15T20:02:38.706Z,10.86
2023-01-15T20:05:08.279Z,10.74
2023-01-15T20:07:38.002Z,10.85
2023-01-15T20:10:09.135Z,10.67
2023-01-15T20:12:55.421Z,10.77
2023-01-15T20:15:24.600Z,10.72
2023-01-15T20:17:52.911Z,10.74
2023-01-15T20:20:21.405Z,10.81
2023-01-15T20:22:51.178Z,10.82
2023-01-15T20:25:19.384Z,10.87
2023-01-15T20:27:47.441Z,10.57
2023-01-15T20:30:18.677Z,10.67
2023-01-15T20:32:47.489Z,10.71
2023-01-15T20:35:18.849Z,10.60
2023-01-15T20:37:48.075Z,10.64
2023-01-15T20:40:19.406Z,10.65
2023-01-15T20:43:05.085Z,10.69
2023-01-15T20:45:33.720Z,10.70
2023-01-15T20:48:20.502Z,10.70
2023-01-15T20:51:00.766Z,10.68
2023-01-15T20:53:30.422Z,10.59
2023-01-15T20:56:00.392Z,10.70
2023-01-15T20:58:28.471Z,10.51
2023-01-15T21:01:03.452Z,10.58
2023-01-15T21:03:31.877Z,10.54
2023-01-15T21:06:00.319Z,10.56
2023-01-15T21:08:29.474Z,10.57
2023-01-15T21:10:57.661Z,10.53
2023-01-15T21:13:27.141Z,10.48
2023-01-15T21:15:57.980Z,10.50
2023-01-15T21:18:27.700Z,10.54
2023-01-15T21:20:56.381Z,10.46
2023-01-15T21:23:25.481Z,10.55
2023-01-15T21:26:01.074Z,10.49
2023-01-15T21:28:31.193Z,10.44
2023-01-15T21:31:00.181Z,10.47
2023-01-15T21:33:28.362Z,10.48
2023-01-15T21:35:56.393Z,10.50
2023-01-15T21:38:24.752Z,10.39
2023-01-15T21:40:52.764Z,10.45
2023-01-15T21:43:38.324Z,10.41
2023-01-15T21:46:07.919Z,10.41
2023-01-15T21:48:36.323Z,10.35
2023-01-15T21:51:06.243Z,10.42
2023-01-15T21:53:34.644Z,10.40
2023-01-15T21:56:02.825Z,10.35
2023-01-15T21:58:30.921Z,10.39
2023-01-15T22:00:59.632Z,10.40
2023-01-15T22:03:29.211Z,10.29
2023-01-15T22:05:57.135Z,10.31
2023-01-15T22:08:25.108Z,10.23
2023-01-15T22:10:53.358Z,10.27
2023-01-15T22:13:21.347Z,10.33
2023-01-15T22:15:54.558Z,10.36
2023-01-15T22:18:25.570Z,10.37
2023-01-15T22:20:59.361Z,10.37
2023-01-15T22:23:28.229Z,10.36
2023-01-15T22:25:56.435Z,10.27
2023-01-15T22:28:25.042Z,10.26
2023-01-15T22:30:53.452Z,10.29
2023-01-15T22:33:21.677Z,10.30
2023-01-15T22:35:58.672Z,10.22
2023-01-15T22:38:27.237Z,10.18
2023-01-15T22:40:55.466Z,10.20
2023-01-15T22:43:22.423Z,10.23
2023-01-15T22:45:50.746Z,10.14
2023-01-15T22:48:18.927Z,10.13
2023-01-15T22:50:46.957Z,10.13
2023-01-15T22:53:16.504Z,10.08
2023-01-15T22:55:44.564Z,9.94
2023-01-15T22:58:12.604Z,10.11
2023-01-15T23:00:40.977Z,10.06
2023-01-15T23:03:10.185Z,10.21
2023-01-15T23:05:39.329Z,10.14
2023-01-15T23:08:08.055Z,10.25
2023-01-15T23:10:37.450Z,10.20
2023-01-15T23:13:05.332Z,10.27
2023-01-15T23:15:33.710Z,10.32
2023-01-15T23:18:01.727Z,10.29
2023-01-15T23:20:29.757Z,10.36
2023-01-15T23:22:58.117Z,10.27
2023-01-15T23:25:26.104Z,10.28
2023-01-15T23:27:55.496Z,10.27
2023-01-15T23:30:24.113Z,10.32
2023-01-15T23:32:52.545Z,10.32
2023-01-15T23:35:21.199Z,10.37
2023-01-15T23:37:49.608Z,10.33
2023-01-15T23:40:17.972Z,10.18
2023-01-15T23:43:03.596Z,10.18
2023-01-15T23:45:53.748Z,10.14
2023-01-15T23:48:21.718Z,10.11
2023-01-15T23:50:49.989Z,10.13
2023-01-15T23:53:17.949Z,10.14
2023-01-15T23:55:45.929Z,10.13
2023-01-15T23:58:14.202Z,10.13
